sensor_id;sensor_type;location;lat;lon;timestamp;temperature;humidity
12436;DHT22;6282;51.440;6.938;2022-11-25T00:00:50;8.60;99.90
12436;DHT22;6282;51.440;6.938;2022-11-25T00:03:17;8.60;99.90
12436;DHT22;6282;51.440;6.938;2022-11-25T00:05:44;8.60;99.90
12436;DHT22;6282;51.440;6.938;2022-11-25T00:08:12;8.60;99.90
12436;DHT22;6282;51.440;6.938;2022-11-25T00:10:39;8.50;99.90
12436;DHT22;6282;51.440;6.938;2022-11-25T00:13:06;8.50;99.90
12436;DHT22;6282;51.440;6.938;2022-11-25T00:15:33;8.50;99.90
12436;DHT22;6282;51.440;6.938;2022-11-25T00:18:00;8.50;99.90
12436;DHT22;6282;51.440;6.938;2022-11-25T00:20:26;8.60;99.90
12436;DHT22;6282;51.440;6.938;2022-11-25T00:22:53;8.50;99.90
12436;DHT22;6282;51.440;6.938;2022-11-25T00:25:21;8.50;99.90
12436;DHT22;6282;51.440;6.938;2022-11-25T00:27:51;8.60;99.90
12436;DHT22;6282;51.440;6.938;2022-11-25T00:30:18;8.60;99.90
12436;DHT22;6282;51.440;6.938;2022-11-25T00:32:44;8.60;99.90
12436;DHT22;6282;51.440;6.938;2022-11-25T00:35:11;8.60;99.90
12436;DHT22;6282;51.440;6.938;2022-11-25T00:37:38;8.60;99.90
12436;DHT22;6282;51.440;6.938;2022-11-25T00:40:06;8.50;99.90
12436;DHT22;6282;51.440;6.938;2022-11-25T00:42:34;8.60;99.90
12436;DHT22;6282;51.440;6.938;2022-11-25T00:45:18;8.70;99.90
12436;DHT22;6282;51.440;6.938;2022-11-25T00:47:45;8.60;99.90
12436;DHT22;6282;51.440;6.938;2022-11-25T00:50:12;8.70;99.90
12436;DHT22;6282;51.440;6.938;2022-11-25T00:52:39;8.70;99.90
12436;DHT22;6282;51.440;6.938;2022-11-25T00:55:06;8.70;99.90
12436;DHT22;6282;51.440;6.938;2022-11-25T00:57:35;8.60;99.90
12436;DHT22;6282;51.440;6.938;2022-11-25T01:00:02;8.60;99.90
12436;DHT22;6282;51.440;6.938;2022-11-25T01:02:29;8.60;99.90
12436;DHT22;6282;51.440;6.938;2022-11-25T01:04:56;8.60;99.90
12436;DHT22;6282;51.440;6.938;2022-11-25T01:07:23;8.50;99.90
12436;DHT22;6282;51.440;6.938;2022-11-25T01:09:50;8.50;99.90
12436;DHT22;6282;51.440;6.938;2022-11-25T01:12:16;8.50;99.90
12436;DHT22;6282;51.440;6.938;2022-11-25T01:14:45;8.40;99.90
12436;DHT22;6282;51.440;6.938;2022-11-25T01:17:11;8.60;99.90
12436;DHT22;6282;51.440;6.938;2022-11-25T01:19:38;8.30;99.90
12436;DHT22;6282;51.440;6.938;2022-11-25T01:22:06;8.50;99.90
12436;DHT22;6282;51.440;6.938;2022-11-25T01:24:33;8.50;99.90
12436;DHT22;6282;51.440;6.938;2022-11-25T01:27:00;8.50;99.90
12436;DHT22;6282;51.440;6.938;2022-11-25T01:29:27;8.50;99.90
12436;DHT22;6282;51.440;6.938;2022-11-25T01:31:55;8.60;99.90
12436;DHT22;6282;51.440;6.938;2022-11-25T01:34:24;8.60;99.90
12436;DHT22;6282;51.440;6.938;2022-11-25T01:36:51;8.60;99.90
12436;DHT22;6282;51.440;6.938;2022-11-25T01:39:19;8.50;99.90
12436;DHT22;6282;51.440;6.938;2022-11-25T01:41:47;8.60;99.90
12436;DHT22;6282;51.440;6.938;2022-11-25T01:44:15;8.70;99.90
12436;DHT22;6282;51.440;6.938;2022-11-25T01:46:49;8.70;99.90
12436;DHT22;6282;51.440;6.938;2022-11-25T01:49:19;8.70;99.90
12436;DHT22;6282;51.440;6.938;2022-11-25T01:51:51;8.70;99.90
12436;DHT22;6282;51.440;6.938;2022-11-25T01:54:21;8.80;99.90
12436;DHT22;6282;51.440;6.938;2022-11-25T01:56:50;8.80;99.90
12436;DHT22;6282;51.440;6.938;2022-11-25T01:59:18;8.80;99.90
12436;DHT22;6282;51.440;6.938;2022-11-25T02:01:45;8.90;99.90
12436;DHT22;6282;51.440;6.938;2022-11-25T02:04:13;8.90;99.90
12436;DHT22;6282;51.440;6.938;2022-11-25T02:06:48;9.00;99.90
12436;DHT22;6282;51.440;6.938;2022-11-25T02:09:18;9.10;99.90
12436;DHT22;6282;51.440;6.938;2022-11-25T02:11:45;9.00;99.90
12436;DHT22;6282;51.440;6.938;2022-11-25T02:14:14;9.60;99.90
12436;DHT22;6282;51.440;6.938;2022-11-25T02:16:42;9.10;99.90
12436;DHT22;6282;51.440;6.938;2022-11-25T02:19:16;9.10;99.90
12436;DHT22;6282;51.440;6.938;2022-11-25T02:21:53;9.10;99.90
12436;DHT22;6282;51.440;6.938;2022-11-25T02:24:29;9.20;99.90
12436;DHT22;6282;51.440;6.938;2022-11-25T02:26:59;9.20;99.90
12436;DHT22;6282;51.440;6.938;2022-11-25T02:29:26;9.20;99.90
12436;DHT22;6282;51.440;6.938;2022-11-25T02:31:53;9.20;99.90
12436;DHT22;6282;51.440;6.938;2022-11-25T02:34:20;9.30;99.90
12436;DHT22;6282;51.440;6.938;2022-11-25T02:36:48;9.30;99.90
12436;DHT22;6282;51.440;6.938;2022-11-25T02:39:15;9.30;99.90
12436;DHT22;6282;51.440;6.938;2022-11-25T02:41:48;9.30;99.90
12436;DHT22;6282;51.440;6.938;2022-11-25T02:44:16;9.40;99.90
12436;DHT22;6282;51.440;6.938;2022-11-25T02:46:43;9.40;99.90
12436;DHT22;6282;51.440;6.938;2022-11-25T02:49:10;9.40;99.90
12436;DHT22;6282;51.440;6.938;2022-11-25T02:51:39;9.30;99.90
12436;DHT22;6282;51.440;6.938;2022-11-25T02:54:06;9.40;99.90
12436;DHT22;6282;51.440;6.938;2022-11-25T02:56:34;9.40;99.90
12436;DHT22;6282;51.440;6.938;2022-11-25T02:59:01;9.20;99.90
12436;DHT22;6282;51.440;6.938;2022-11-25T03:01:30;9.50;99.90
12436;DHT22;6282;51.440;6.938;2022-11-25T03:03:57;9.40;99.90
12436;DHT22;6282;51.440;6.938;2022-11-25T03:06:23;9.40;99.90
12436;DHT22;6282;51.440;6.938;2022-11-25T03:08:50;9.30;99.90
12436;DHT22;6282;51.440;6.938;2022-11-25T03:11:17;9.30;99.90
12436;DHT22;6282;51.440;6.938;2022-11-25T03:13:44;9.30;99.90
12436;DHT22;6282;51.440;6.938;2022-11-25T03:16:11;9.30;99.90
12436;DHT22;6282;51.440;6.938;2022-11-25T03:18:39;9.40;99.90
12436;DHT22;6282;51.440;6.938;2022-11-25T03:21:06;9.50;99.90
12436;DHT22;6282;51.440;6.938;2022-11-25T03:23:32;9.30;99.90
12436;DHT22;6282;51.440;6.938;2022-11-25T03:26:04;9.30;99.90
12436;DHT22;6282;51.440;6.938;2022-11-25T03:28:30;9.30;99.90
12436;DHT22;6282;51.440;6.938;2022-11-25T03:30:57;9.30;99.90
12436;DHT22;6282;51.440;6.938;2022-11-25T03:33:24;9.10;99.90
12436;DHT22;6282;51.440;6.938;2022-11-25T03:35:52;9.30;99.90
12436;DHT22;6282;51.440;6.938;2022-11-25T03:38:19;9.30;99.90
12436;DHT22;6282;51.440;6.938;2022-11-25T03:40:46;9.30;99.90
12436;DHT22;6282;51.440;6.938;2022-11-25T03:43:13;9.20;99.90
12436;DHT22;6282;51.440;6.938;2022-11-25T03:45:40;9.20;99.90
12436;DHT22;6282;51.440;6.938;2022-11-25T03:48:07;9.20;99.90
12436;DHT22;6282;51.440;6.938;2022-11-25T03:50:34;9.10;99.90
12436;DHT22;6282;51.440;6.938;2022-11-25T03:53:02;9.10;99.90
12436;DHT22;6282;51.440;6.938;2022-11-25T03:55:29;9.10;99.90
12436;DHT22;6282;51.440;6.938;2022-11-25T03:57:55;9.10;99.90
12436;DHT22;6282;51.440;6.938;2022-11-25T04:00:22;9.00;99.90
12436;DHT22;6282;51.440;6.938;2022-11-25T04:02:49;9.10;99.90
12436;DHT22;6282;51.440;6.938;2022-11-25T04:05:16;9.20;99.90
12436;DHT22;6282;51.440;6.938;2022-11-25T04:07:43;9.30;99.90
12436;DHT22;6282;51.440;6.938;2022-11-25T04:10:11;9.30;99.90
12436;DHT22;6282;51.440;6.938;2022-11-25T04:12:38;9.30;99.90
12436;DHT22;6282;51.440;6.938;2022-11-25T04:15:14;9.30;99.90
12436;DHT22;6282;51.440;6.938;2022-11-25T04:17:41;9.20;99.90
12436;DHT22;6282;51.440;6.938;2022-11-25T04:20:10;9.10;99.90
12436;DHT22;6282;51.440;6.938;2022-11-25T04:22:37;9.10;99.90
12436;DHT22;6282;51.440;6.938;2022-11-25T04:25:05;9.10;99.90
12436;DHT22;6282;51.440;6.938;2022-11-25T04:27:33;9.00;99.90
12436;DHT22;6282;51.440;6.938;2022-11-25T04:30:00;9.00;99.90
12436;DHT22;6282;51.440;6.938;2022-11-25T04:32:27;8.90;99.90
12436;DHT22;6282;51.440;6.938;2022-11-25T04:34:54;8.90;99.90
12436;DHT22;6282;51.440;6.938;2022-11-25T04:37:20;8.90;99.90
12436;DHT22;6282;51.440;6.938;2022-11-25T04:39:48;8.80;99.90
12436;DHT22;6282;51.440;6.938;2022-11-25T04:42:14;8.90;99.90
12436;DHT22;6282;51.440;6.938;2022-11-25T04:45:04;8.90;99.90
12436;DHT22;6282;51.440;6.938;2022-11-25T04:47:32;8.90;99.90
12436;DHT22;6282;51.440;6.938;2022-11-25T04:49:59;8.90;99.90
12436;DHT22;6282;51.440;6.938;2022-11-25T04:52:26;8.90;99.90
12436;DHT22;6282;51.440;6.938;2022-11-25T04:54:53;8.90;99.90
12436;DHT22;6282;51.440;6.938;2022-11-25T04:57:20;8.90;99.90
12436;DHT22;6282;51.440;6.938;2022-11-25T04:59:47;8.80;99.90
12436;DHT22;6282;51.440;6.938;2022-11-25T05:02:15;8.80;99.90
12436;DHT22;6282;51.440;6.938;2022-11-25T05:04:44;8.80;99.90
12436;DHT22;6282;51.440;6.938;2022-11-25T05:07:11;8.80;99.90
12436;DHT22;6282;51.440;6.938;2022-11-25T05:09:38;8.80;99.90
12436;DHT22;6282;51.440;6.938;2022-11-25T05:12:06;8.80;99.90
12436;DHT22;6282;51.440;6.938;2022-11-25T05:14:33;8.80;99.90
12436;DHT22;6282;51.440;6.938;2022-11-25T05:17:01;8.80;99.90
12436;DHT22;6282;51.440;6.938;2022-11-25T05:19:29;8.80;99.90
12436;DHT22;6282;51.440;6.938;2022-11-25T05:21:56;8.80;99.90
12436;DHT22;6282;51.440;6.938;2022-11-25T05:24:23;8.70;99.90
12436;DHT22;6282;51.440;6.938;2022-11-25T05:26:50;8.80;99.90
12436;DHT22;6282;51.440;6.938;2022-11-25T05:29:17;8.70;99.90
12436;DHT22;6282;51.440;6.938;2022-11-25T05:31:44;8.70;99.90
12436;DHT22;6282;51.440;6.938;2022-11-25T05:34:11;8.70;99.90
12436;DHT22;6282;51.440;6.938;2022-11-25T05:36:39;8.70;99.90
12436;DHT22;6282;51.440;6.938;2022-11-25T05:39:06;8.70;99.90
12436;DHT22;6282;51.440;6.938;2022-11-25T05:41:32;8.60;99.90
12436;DHT22;6282;51.440;6.938;2022-11-25T05:43:59;8.80;99.90
12436;DHT22;6282;51.440;6.938;2022-11-25T05:46:26;8.60;99.90
12436;DHT22;6282;51.440;6.938;2022-11-25T05:48:53;8.80;99.90
12436;DHT22;6282;51.440;6.938;2022-11-25T05:51:20;8.50;99.90
12436;DHT22;6282;51.440;6.938;2022-11-25T05:53:49;8.50;99.90
12436;DHT22;6282;51.440;6.938;2022-11-25T05:56:16;8.50;99.90
12436;DHT22;6282;51.440;6.938;2022-11-25T05:58:42;8.40;99.90
12436;DHT22;6282;51.440;6.938;2022-11-25T06:01:10;8.50;99.90
12436;DHT22;6282;51.440;6.938;2022-11-25T06:03:38;8.50;99.90
12436;DHT22;6282;51.440;6.938;2022-11-25T06:06:06;8.50;99.90
12436;DHT22;6282;51.440;6.938;2022-11-25T06:08:34;8.50;99.90
12436;DHT22;6282;51.440;6.938;2022-11-25T06:11:05;8.50;99.90
12436;DHT22;6282;51.440;6.938;2022-11-25T06:13:32;8.50;99.90
12436;DHT22;6282;51.440;6.938;2022-11-25T06:15:59;8.50;99.90
12436;DHT22;6282;51.440;6.938;2022-11-25T06:18:26;8.50;99.90
12436;DHT22;6282;51.440;6.938;2022-11-25T06:20:56;8.50;99.90
12436;DHT22;6282;51.440;6.938;2022-11-25T06:23:23;8.50;99.90
12436;DHT22;6282;51.440;6.938;2022-11-25T06:25:51;8.50;99.90
12436;DHT22;6282;51.440;6.938;2022-11-25T06:28:19;8.50;99.90
12436;DHT22;6282;51.440;6.938;2022-11-25T06:30:46;8.50;99.90
12436;DHT22;6282;51.440;6.938;2022-11-25T06:33:12;8.50;99.90
12436;DHT22;6282;51.440;6.938;2022-11-25T06:35:39;8.50;99.90
12436;DHT22;6282;51.440;6.938;2022-11-25T06:38:06;8.50;99.90
12436;DHT22;6282;51.440;6.938;2022-11-25T06:40:33;8.50;99.90
12436;DHT22;6282;51.440;6.938;2022-11-25T06:43:00;8.50;99.90
12436;DHT22;6282;51.440;6.938;2022-11-25T06:45:28;8.40;99.90
12436;DHT22;6282;51.440;6.938;2022-11-25T06:47:56;8.40;99.90
12436;DHT22;6282;51.440;6.938;2022-11-25T06:50:22;8.40;99.90
12436;DHT22;6282;51.440;6.938;2022-11-25T06:52:49;8.30;99.90
12436;DHT22;6282;51.440;6.938;2022-11-25T06:55:16;8.30;99.90
12436;DHT22;6282;51.440;6.938;2022-11-25T06:57:43;8.30;99.90
12436;DHT22;6282;51.440;6.938;2022-11-25T07:00:10;8.50;99.90
12436;DHT22;6282;51.440;6.938;2022-11-25T07:02:38;8.40;99.90
12436;DHT22;6282;51.440;6.938;2022-11-25T07:05:06;8.40;99.90
12436;DHT22;6282;51.440;6.938;2022-11-25T07:07:32;8.40;99.90
12436;DHT22;6282;51.440;6.938;2022-11-25T07:09:59;8.40;99.90
12436;DHT22;6282;51.440;6.938;2022-11-25T07:12:26;8.30;99.90
12436;DHT22;6282;51.440;6.938;2022-11-25T07:14:53;8.40;99.90
12436;DHT22;6282;51.440;6.938;2022-11-25T07:17:19;8.40;99.90
12436;DHT22;6282;51.440;6.938;2022-11-25T07:19:47;8.40;99.90
12436;DHT22;6282;51.440;6.938;2022-11-25T07:22:14;8.40;99.90
12436;DHT22;6282;51.440;6.938;2022-11-25T07:24:41;8.40;99.90
12436;DHT22;6282;51.440;6.938;2022-11-25T07:27:08;8.40;99.90
12436;DHT22;6282;51.440;6.938;2022-11-25T07:29:34;8.40;99.90
12436;DHT22;6282;51.440;6.938;2022-11-25T07:32:02;8.40;99.90
12436;DHT22;6282;51.440;6.938;2022-11-25T07:34:28;8.40;99.90
12436;DHT22;6282;51.440;6.938;2022-11-25T07:36:56;8.40;99.90
12436;DHT22;6282;51.440;6.938;2022-11-25T07:39:23;8.40;99.90
12436;DHT22;6282;51.440;6.938;2022-11-25T07:41:50;8.40;99.90
12436;DHT22;6282;51.440;6.938;2022-11-25T07:44:18;8.30;99.90
12436;DHT22;6282;51.440;6.938;2022-11-25T07:46:46;8.40;99.90
12436;DHT22;6282;51.440;6.938;2022-11-25T07:49:15;8.30;99.90
12436;DHT22;6282;51.440;6.938;2022-11-25T07:51:46;8.30;99.90
12436;DHT22;6282;51.440;6.938;2022-11-25T07:54:15;8.30;99.90
12436;DHT22;6282;51.440;6.938;2022-11-25T07:56:43;8.30;99.90
12436;DHT22;6282;51.440;6.938;2022-11-25T07:59:12;8.30;99.90
12436;DHT22;6282;51.440;6.938;2022-11-25T08:01:39;8.30;99.90
12436;DHT22;6282;51.440;6.938;2022-11-25T08:04:08;8.30;99.90
12436;DHT22;6282;51.440;6.938;2022-11-25T08:06:38;8.20;99.90
12436;DHT22;6282;51.440;6.938;2022-11-25T08:09:05;8.30;99.90
12436;DHT22;6282;51.440;6.938;2022-11-25T08:11:34;8.30;99.90
12436;DHT22;6282;51.440;6.938;2022-11-25T08:14:01;8.30;99.90
12436;DHT22;6282;51.440;6.938;2022-11-25T08:16:28;8.30;99.90
12436;DHT22;6282;51.440;6.938;2022-11-25T08:18:57;8.30;99.90
12436;DHT22;6282;51.440;6.938;2022-11-25T08:21:24;8.40;99.90
12436;DHT22;6282;51.440;6.938;2022-11-25T08:23:51;8.60;99.90
12436;DHT22;6282;51.440;6.938;2022-11-25T08:26:21;8.50;99.90
12436;DHT22;6282;51.440;6.938;2022-11-25T08:28:49;8.50;99.90
12436;DHT22;6282;51.440;6.938;2022-11-25T08:31:18;8.70;99.90
12436;DHT22;6282;51.440;6.938;2022-11-25T08:33:46;8.70;99.90
12436;DHT22;6282;51.440;6.938;2022-11-25T08:36:14;8.60;99.90
12436;DHT22;6282;51.440;6.938;2022-11-25T08:38:42;8.60;99.90
12436;DHT22;6282;51.440;6.938;2022-11-25T08:41:11;8.50;99.90
12436;DHT22;6282;51.440;6.938;2022-11-25T08:43:38;8.60;99.90
12436;DHT22;6282;51.440;6.938;2022-11-25T08:46:11;8.60;99.90
12436;DHT22;6282;51.440;6.938;2022-11-25T08:48:38;8.60;99.90
12436;DHT22;6282;51.440;6.938;2022-11-25T08:51:08;8.60;99.90
12436;DHT22;6282;51.440;6.938;2022-11-25T08:53:36;8.50;99.90
12436;DHT22;6282;51.440;6.938;2022-11-25T08:56:04;8.60;99.90
12436;DHT22;6282;51.440;6.938;2022-11-25T08:58:31;8.70;99.90
12436;DHT22;6282;51.440;6.938;2022-11-25T09:00:58;8.80;99.90
12436;DHT22;6282;51.440;6.938;2022-11-25T09:03:26;8.90;99.90
12436;DHT22;6282;51.440;6.938;2022-11-25T09:05:53;8.90;99.90
12436;DHT22;6282;51.440;6.938;2022-11-25T09:08:20;9.00;99.90
12436;DHT22;6282;51.440;6.938;2022-11-25T09:10:47;9.00;99.90
12436;DHT22;6282;51.440;6.938;2022-11-25T09:13:14;9.10;99.90
12436;DHT22;6282;51.440;6.938;2022-11-25T09:15:41;9.00;99.90
12436;DHT22;6282;51.440;6.938;2022-11-25T09:18:09;9.10;99.90
12436;DHT22;6282;51.440;6.938;2022-11-25T09:20:38;9.10;99.90
12436;DHT22;6282;51.440;6.938;2022-11-25T09:23:06;9.10;99.90
12436;DHT22;6282;51.440;6.938;2022-11-25T09:25:33;9.10;99.90
12436;DHT22;6282;51.440;6.938;2022-11-25T09:28:01;9.10;99.90
12436;DHT22;6282;51.440;6.938;2022-11-25T09:30:28;9.10;99.90
12436;DHT22;6282;51.440;6.938;2022-11-25T09:32:55;9.30;99.90
12436;DHT22;6282;51.440;6.938;2022-11-25T09:35:22;9.20;99.90
12436;DHT22;6282;51.440;6.938;2022-11-25T09:37:51;9.20;99.90
12436;DHT22;6282;51.440;6.938;2022-11-25T09:40:20;9.20;99.90
12436;DHT22;6282;51.440;6.938;2022-11-25T09:42:50;9.30;99.90
12436;DHT22;6282;51.440;6.938;2022-11-25T09:45:45;9.50;99.90
12436;DHT22;6282;51.440;6.938;2022-11-25T09:48:41;9.80;99.90
12436;DHT22;6282;51.440;6.938;2022-11-25T09:51:16;9.80;99.90
12436;DHT22;6282;51.440;6.938;2022-11-25T09:53:49;9.70;99.90
12436;DHT22;6282;51.440;6.938;2022-11-25T09:56:24;9.70;99.90
12436;DHT22;6282;51.440;6.938;2022-11-25T09:58:55;9.70;99.90
12436;DHT22;6282;51.440;6.938;2022-11-25T10:01:25;9.60;99.90
12436;DHT22;6282;51.440;6.938;2022-11-25T10:03:57;9.60;99.90
12436;DHT22;6282;51.440;6.938;2022-11-25T10:06:28;9.50;99.90
12436;DHT22;6282;51.440;6.938;2022-11-25T10:08:59;9.60;99.90
12436;DHT22;6282;51.440;6.938;2022-11-25T10:11:33;9.60;99.90
12436;DHT22;6282;51.440;6.938;2022-11-25T10:14:09;9.60;99.90
12436;DHT22;6282;51.440;6.938;2022-11-25T10:16:44;9.70;99.90
12436;DHT22;6282;51.440;6.938;2022-11-25T10:19:23;9.80;99.90
12436;DHT22;6282;51.440;6.938;2022-11-25T10:21:51;9.90;99.90
12436;DHT22;6282;51.440;6.938;2022-11-25T10:24:20;9.90;99.90
12436;DHT22;6282;51.440;6.938;2022-11-25T10:26:53;9.90;99.90
12436;DHT22;6282;51.440;6.938;2022-11-25T10:29:25;10.20;99.90
12436;DHT22;6282;51.440;6.938;2022-11-25T10:31:57;10.30;99.90
12436;DHT22;6282;51.440;6.938;2022-11-25T10:34:32;10.30;99.90
12436;DHT22;6282;51.440;6.938;2022-11-25T10:37:05;10.30;99.90
12436;DHT22;6282;51.440;6.938;2022-11-25T10:39:37;10.40;99.90
12436;DHT22;6282;51.440;6.938;2022-11-25T10:42:05;10.40;99.90
12436;DHT22;6282;51.440;6.938;2022-11-25T10:44:35;10.20;99.90
12436;DHT22;6282;51.440;6.938;2022-11-25T10:47:12;10.20;99.90
12436;DHT22;6282;51.440;6.938;2022-11-25T10:49:49;10.30;99.90
12436;DHT22;6282;51.440;6.938;2022-11-25T10:52:20;10.40;99.90
12436;DHT22;6282;51.440;6.938;2022-11-25T10:54:57;10.40;99.90
12436;DHT22;6282;51.440;6.938;2022-11-25T10:57:33;10.30;99.90
12436;DHT22;6282;51.440;6.938;2022-11-25T11:00:00;10.40;99.90
12436;DHT22;6282;51.440;6.938;2022-11-25T11:02:30;10.40;99.90
12436;DHT22;6282;51.440;6.938;2022-11-25T11:05:17;10.40;99.90
12436;DHT22;6282;51.440;6.938;2022-11-25T11:07:45;10.60;99.90
12436;DHT22;6282;51.440;6.938;2022-11-25T11:10:18;10.60;99.90
12436;DHT22;6282;51.440;6.938;2022-11-25T11:12:56;10.70;99.90
12436;DHT22;6282;51.440;6.938;2022-11-25T11:15:25;10.70;99.90
12436;DHT22;6282;51.440;6.938;2022-11-25T11:17:53;10.60;99.90
12436;DHT22;6282;51.440;6.938;2022-11-25T11:20:22;10.40;99.90
12436;DHT22;6282;51.440;6.938;2022-11-25T11:22:55;10.30;99.90
12436;DHT22;6282;51.440;6.938;2022-11-25T11:25:32;10.30;99.90
12436;DHT22;6282;51.440;6.938;2022-11-25T11:28:00;10.30;99.90
12436;DHT22;6282;51.440;6.938;2022-11-25T11:30:29;10.30;99.90
12436;DHT22;6282;51.440;6.938;2022-11-25T11:32:59;10.50;99.90
12436;DHT22;6282;51.440;6.938;2022-11-25T11:35:37;10.60;99.90
12436;DHT22;6282;51.440;6.938;2022-11-25T11:38:18;10.50;99.90
12436;DHT22;6282;51.440;6.938;2022-11-25T11:40:51;10.60;99.90
12436;DHT22;6282;51.440;6.938;2022-11-25T11:46:25;10.80;99.90
12436;DHT22;6282;51.440;6.938;2022-11-25T11:49:02;10.90;99.90
12436;DHT22;6282;51.440;6.938;2022-11-25T11:51:38;10.90;99.90
12436;DHT22;6282;51.440;6.938;2022-11-25T11:54:15;11.00;99.90
12436;DHT22;6282;51.440;6.938;2022-11-25T11:56:48;10.90;99.90
12436;DHT22;6282;51.440;6.938;2022-11-25T11:59:34;10.90;99.90
12436;DHT22;6282;51.440;6.938;2022-11-25T12:02:14;11.10;99.90
12436;DHT22;6282;51.440;6.938;2022-11-25T12:04:44;11.10;99.90
12436;DHT22;6282;51.440;6.938;2022-11-25T12:07:16;10.90;99.90
12436;DHT22;6282;51.440;6.938;2022-11-25T12:09:48;10.90;99.90
12436;DHT22;6282;51.440;6.938;2022-11-25T12:12:21;11.00;99.90
12436;DHT22;6282;51.440;6.938;2022-11-25T12:14:59;10.90;99.90
12436;DHT22;6282;51.440;6.938;2022-11-25T12:17:31;10.90;99.90
12436;DHT22;6282;51.440;6.938;2022-11-25T12:20:04;10.90;99.90
12436;DHT22;6282;51.440;6.938;2022-11-25T12:22:37;11.00;99.90
12436;DHT22;6282;51.440;6.938;2022-11-25T12:25:10;11.10;99.90
12436;DHT22;6282;51.440;6.938;2022-11-25T12:27:43;11.20;99.90
12436;DHT22;6282;51.440;6.938;2022-11-25T12:30:14;11.20;99.90
12436;DHT22;6282;51.440;6.938;2022-11-25T12:32:55;11.20;99.90
12436;DHT22;6282;51.440;6.938;2022-11-25T12:35:33;11.20;99.90
12436;DHT22;6282;51.440;6.938;2022-11-25T12:38:18;11.00;99.90
12436;DHT22;6282;51.440;6.938;2022-11-25T12:40:52;11.00;99.90
12436;DHT22;6282;51.440;6.938;2022-11-25T12:43:26;11.10;99.90
12436;DHT22;6282;51.440;6.938;2022-11-25T12:46:04;11.20;99.90
12436;DHT22;6282;51.440;6.938;2022-11-25T12:48:37;11.10;99.90
12436;DHT22;6282;51.440;6.938;2022-11-25T12:51:13;11.20;99.90
12436;DHT22;6282;51.440;6.938;2022-11-25T12:53:48;11.20;99.90
12436;DHT22;6282;51.440;6.938;2022-11-25T12:56:25;11.10;99.90
12436;DHT22;6282;51.440;6.938;2022-11-25T12:59:06;11.10;99.90
12436;DHT22;6282;51.440;6.938;2022-11-25T13:01:54;11.20;99.90
12436;DHT22;6282;51.440;6.938;2022-11-25T13:04:38;11.20;99.90
12436;DHT22;6282;51.440;6.938;2022-11-25T13:07:26;11.20;99.90
12436;DHT22;6282;51.440;6.938;2022-11-25T13:10:16;11.20;99.90
12436;DHT22;6282;51.440;6.938;2022-11-25T13:12:53;11.20;99.90
12436;DHT22;6282;51.440;6.938;2022-11-25T13:15:28;11.20;99.90
12436;DHT22;6282;51.440;6.938;2022-11-25T13:17:58;11.20;99.90
12436;DHT22;6282;51.440;6.938;2022-11-25T13:20:45;11.20;99.90
12436;DHT22;6282;51.440;6.938;2022-11-25T13:23:42;11.20;99.90
12436;DHT22;6282;51.440;6.938;2022-11-25T13:26:35;11.30;99.90
12436;DHT22;6282;51.440;6.938;2022-11-25T13:32:30;11.30;99.90
12436;DHT22;6282;51.440;6.938;2022-11-25T13:37:59;11.30;99.90
12436;DHT22;6282;51.440;6.938;2022-11-25T13:40:35;11.30;99.90
12436;DHT22;6282;51.440;6.938;2022-11-25T13:43:02;11.30;99.90
12436;DHT22;6282;51.440;6.938;2022-11-25T13:45:31;11.30;99.90
12436;DHT22;6282;51.440;6.938;2022-11-25T13:48:06;11.30;99.90
12436;DHT22;6282;51.440;6.938;2022-11-25T13:50:37;11.30;99.90
12436;DHT22;6282;51.440;6.938;2022-11-25T13:53:06;11.30;99.90
12436;DHT22;6282;51.440;6.938;2022-11-25T13:55:42;11.30;99.90
12436;DHT22;6282;51.440;6.938;2022-11-25T13:58:19;11.30;99.90
12436;DHT22;6282;51.440;6.938;2022-11-25T14:01:20;11.20;99.90
12436;DHT22;6282;51.440;6.938;2022-11-25T14:03:55;11.20;99.90
12436;DHT22;6282;51.440;6.938;2022-11-25T14:06:55;11.20;99.90
12436;DHT22;6282;51.440;6.938;2022-11-25T14:09:37;11.10;99.90
12436;DHT22;6282;51.440;6.938;2022-11-25T14:12:18;11.10;99.90
12436;DHT22;6282;51.440;6.938;2022-11-25T14:14:58;11.20;99.90
12436;DHT22;6282;51.440;6.938;2022-11-25T14:17:42;11.10;99.90
12436;DHT22;6282;51.440;6.938;2022-11-25T14:20:24;11.10;99.90
12436;DHT22;6282;51.440;6.938;2022-11-25T14:23:18;11.10;99.90
12436;DHT22;6282;51.440;6.938;2022-11-25T14:25:52;11.00;99.90
12436;DHT22;6282;51.440;6.938;2022-11-25T14:28:30;11.00;99.90
12436;DHT22;6282;51.440;6.938;2022-11-25T14:31:05;11.00;99.90
12436;DHT22;6282;51.440;6.938;2022-11-25T14:33:42;11.00;99.90
12436;DHT22;6282;51.440;6.938;2022-11-25T14:36:14;10.90;99.90
12436;DHT22;6282;51.440;6.938;2022-11-25T14:38:47;10.90;99.90
12436;DHT22;6282;51.440;6.938;2022-11-25T14:41:17;10.90;99.90
12436;DHT22;6282;51.440;6.938;2022-11-25T14:43:49;10.90;99.90
12436;DHT22;6282;51.440;6.938;2022-11-25T14:46:19;10.90;99.90
12436;DHT22;6282;51.440;6.938;2022-11-25T14:48:53;10.80;99.90
12436;DHT22;6282;51.440;6.938;2022-11-25T14:51:22;10.90;99.90
12436;DHT22;6282;51.440;6.938;2022-11-25T14:53:50;10.80;99.90
12436;DHT22;6282;51.440;6.938;2022-11-25T14:56:23;10.80;99.90
12436;DHT22;6282;51.440;6.938;2022-11-25T14:58:53;10.80;99.90
12436;DHT22;6282;51.440;6.938;2022-11-25T15:01:22;10.90;99.90
12436;DHT22;6282;51.440;6.938;2022-11-25T15:03:51;10.90;99.90
12436;DHT22;6282;51.440;6.938;2022-11-25T15:06:18;10.80;99.90
12436;DHT22;6282;51.440;6.938;2022-11-25T15:08:54;10.80;99.90
12436;DHT22;6282;51.440;6.938;2022-11-25T15:11:24;10.70;99.90
12436;DHT22;6282;51.440;6.938;2022-11-25T15:13:56;10.70;99.90
12436;DHT22;6282;51.440;6.938;2022-11-25T15:16:29;10.60;99.90
12436;DHT22;6282;51.440;6.938;2022-11-25T15:18:58;10.70;99.90
12436;DHT22;6282;51.440;6.938;2022-11-25T15:21:29;10.50;99.90
12436;DHT22;6282;51.440;6.938;2022-11-25T15:23:57;10.40;99.90
12436;DHT22;6282;51.440;6.938;2022-11-25T15:26:26;10.40;99.90
12436;DHT22;6282;51.440;6.938;2022-11-25T15:28:53;10.40;99.90
12436;DHT22;6282;51.440;6.938;2022-11-25T15:31:25;10.30;99.90
12436;DHT22;6282;51.440;6.938;2022-11-25T15:33:55;10.30;99.90
12436;DHT22;6282;51.440;6.938;2022-11-25T15:36:23;10.30;99.90
12436;DHT22;6282;51.440;6.938;2022-11-25T15:38:50;10.40;99.90
12436;DHT22;6282;51.440;6.938;2022-11-25T15:41:28;10.40;99.90
12436;DHT22;6282;51.440;6.938;2022-11-25T15:43:59;10.30;99.90
12436;DHT22;6282;51.440;6.938;2022-11-25T15:46:27;10.30;99.90
12436;DHT22;6282;51.440;6.938;2022-11-25T15:48:56;10.30;99.90
12436;DHT22;6282;51.440;6.938;2022-11-25T15:51:34;10.20;99.90
12436;DHT22;6282;51.440;6.938;2022-11-25T15:54:04;10.30;99.90
12436;DHT22;6282;51.440;6.938;2022-11-25T15:56:36;10.30;99.90
12436;DHT22;6282;51.440;6.938;2022-11-25T15:59:03;10.30;99.90
12436;DHT22;6282;51.440;6.938;2022-11-25T16:01:30;10.30;99.90
12436;DHT22;6282;51.440;6.938;2022-11-25T16:04:16;10.30;99.90
12436;DHT22;6282;51.440;6.938;2022-11-25T16:06:52;10.30;99.90
12436;DHT22;6282;51.440;6.938;2022-11-25T16:09:21;10.30;99.90
12436;DHT22;6282;51.440;6.938;2022-11-25T16:11:51;10.30;99.90
12436;DHT22;6282;51.440;6.938;2022-11-25T16:14:23;10.30;99.90
12436;DHT22;6282;51.440;6.938;2022-11-25T16:17:00;10.40;99.90
12436;DHT22;6282;51.440;6.938;2022-11-25T16:19:30;10.30;99.90
12436;DHT22;6282;51.440;6.938;2022-11-25T16:22:00;10.30;99.90
12436;DHT22;6282;51.440;6.938;2022-11-25T16:24:38;10.30;99.90
12436;DHT22;6282;51.440;6.938;2022-11-25T16:27:16;10.30;99.90